createdAt,value
2019-01-23T00:02:16.001Z,4.70
2019-01-23T00:04:42.821Z,10.17
2019-01-23T00:07:09.611Z,11.00
2019-01-23T00:09:37.293Z,9.80
2019-01-23T00:12:04.270Z,7.07
2019-01-23T00:14:31.135Z,13.47
2019-01-23T00:16:58.010Z,10.27
2019-01-23T00:19:24.822Z,3.30
2019-01-23T00:21:51.719Z,6.10
2019-01-23T00:24:18.523Z,4.13
2019-01-23T00:26:45.336Z,5.47
2019-01-23T00:29:12.287Z,7.83
2019-01-23T00:31:39.061Z,4.93
2019-01-23T00:34:05.817Z,4.27
2019-01-23T00:36:32.691Z,4.00
2019-01-23T00:38:59.501Z,6.10
2019-01-23T00:41:26.345Z,3.53
2019-01-23T00:43:53.100Z,3.77
2019-01-23T00:46:19.969Z,3.13
2019-01-23T00:48:46.773Z,9.27
2019-01-23T00:51:13.593Z,3.30
2019-01-23T00:53:40.414Z,2.10
2019-01-23T00:56:07.227Z,4.73
2019-01-23T00:58:34.080Z,2.10
2019-01-23T01:01:01.120Z,2.53
2019-01-23T01:03:28.025Z,3.80
2019-01-23T01:05:54.776Z,9.60
2019-01-23T01:08:21.631Z,3.20
2019-01-23T01:10:48.510Z,4.63
2019-01-23T01:13:15.327Z,4.73
2019-01-23T01:15:42.183Z,2.70
2019-01-23T01:18:08.978Z,3.83
2019-01-23T01:20:35.840Z,3.80
2019-01-23T01:23:02.671Z,4.20
2019-01-23T01:25:29.472Z,3.47
2019-01-23T01:27:56.317Z,4.17
2019-01-23T01:30:23.388Z,4.07
2019-01-23T01:32:50.270Z,3.47
2019-01-23T01:35:17.092Z,4.30
2019-01-23T01:37:43.919Z,3.93
2019-01-23T01:40:12.467Z,3.60
2019-01-23T01:42:39.486Z,4.60
2019-01-23T01:45:06.474Z,4.70
2019-01-23T01:47:33.333Z,2.70
2019-01-23T01:50:00.274Z,3.80
2019-01-23T01:52:27.143Z,5.43
2019-01-23T01:54:53.908Z,3.90
2019-01-23T01:57:20.795Z,2.10
2019-01-23T01:59:47.646Z,3.20
2019-01-23T02:02:14.500Z,6.67
2019-01-23T02:04:41.349Z,3.23
2019-01-23T02:07:08.198Z,2.23
2019-01-23T02:09:35.532Z,6.10
2019-01-23T02:12:02.565Z,5.07
2019-01-23T02:14:29.447Z,5.67
2019-01-23T02:16:56.295Z,2.43
2019-01-23T02:19:23.117Z,5.93
2019-01-23T02:21:49.953Z,2.80
2019-01-23T02:24:16.770Z,2.07
2019-01-23T02:26:43.630Z,3.03
2019-01-23T02:29:10.480Z,3.23
2019-01-23T02:31:37.374Z,3.60
2019-01-23T02:34:04.130Z,2.57
2019-01-23T02:36:30.960Z,3.83
2019-01-23T02:38:57.818Z,4.17
2019-01-23T02:41:24.624Z,7.63
2019-01-23T02:43:51.496Z,2.97
2019-01-23T02:46:18.288Z,2.63
2019-01-23T02:48:45.141Z,4.30
2019-01-23T02:51:11.897Z,3.33
2019-01-23T02:53:38.861Z,2.30
2019-01-23T02:56:05.704Z,2.93
2019-01-23T02:58:32.536Z,4.07
2019-01-23T03:00:59.317Z,3.40
2019-01-23T03:03:26.120Z,3.13
2019-01-23T03:05:52.887Z,4.20
2019-01-23T03:08:19.891Z,4.43
2019-01-23T03:10:46.724Z,5.10
2019-01-23T03:13:13.569Z,3.10
2019-01-23T03:15:40.435Z,3.13
2019-01-23T03:18:07.265Z,6.83
2019-01-23T03:20:34.185Z,3.50
2019-01-23T03:23:01.016Z,4.30
2019-01-23T03:25:27.854Z,3.80
2019-01-23T03:27:54.721Z,3.40
2019-01-23T03:30:22.014Z,3.27
2019-01-23T03:32:48.972Z,3.87
2019-01-23T03:35:15.806Z,4.63
2019-01-23T03:37:42.653Z,2.90
2019-01-23T03:40:10.615Z,5.80
2019-01-23T03:42:37.425Z,3.40
2019-01-23T03:45:05.412Z,7.60
2019-01-23T03:47:32.345Z,2.60
2019-01-23T03:49:59.193Z,2.47
2019-01-23T03:52:26.027Z,2.83
2019-01-23T03:54:52.902Z,3.33
2019-01-23T03:57:19.702Z,2.90
2019-01-23T03:59:46.670Z,3.33
2019-01-23T04:02:13.485Z,4.87
2019-01-23T04:04:40.336Z,2.90
2019-01-23T04:07:07.218Z,2.27
2019-01-23T04:09:34.071Z,3.00
2019-01-23T04:12:00.929Z,2.40
2019-01-23T04:14:27.721Z,2.90
2019-01-23T04:16:54.658Z,3.63
2019-01-23T04:19:21.456Z,2.40
2019-01-23T04:21:48.236Z,3.80
2019-01-23T04:24:15.083Z,2.43
2019-01-23T04:26:41.860Z,3.80
2019-01-23T04:29:08.810Z,2.60
2019-01-23T04:31:35.622Z,4.03
2019-01-23T04:34:02.442Z,2.07
2019-01-23T04:36:29.243Z,2.70
2019-01-23T04:38:56.085Z,2.50
2019-01-23T04:41:22.842Z,7.50
2019-01-23T04:43:49.679Z,2.60
2019-01-23T04:46:16.478Z,3.80
2019-01-23T04:48:43.261Z,4.83
2019-01-23T04:51:16.284Z,3.33
2019-01-23T04:53:45.338Z,5.00
2019-01-23T04:56:12.123Z,2.63
2019-01-23T04:58:38.945Z,2.83
2019-01-23T05:01:05.722Z,3.07
2019-01-23T05:03:32.529Z,4.43
2019-01-23T05:05:59.335Z,3.30
2019-01-23T05:08:26.159Z,3.40
2019-01-23T05:10:53.003Z,4.27
2019-01-23T05:13:19.934Z,17.43
2019-01-23T05:15:46.723Z,3.73
2019-01-23T05:18:13.525Z,2.50
2019-01-23T05:20:40.374Z,3.67
2019-01-23T05:23:07.171Z,9.67
2019-01-23T05:25:33.963Z,8.07
2019-01-23T05:28:00.881Z,3.47
2019-01-23T05:30:27.668Z,3.57
2019-01-23T05:32:54.491Z,3.70
2019-01-23T05:35:21.357Z,4.33
2019-01-23T05:37:48.146Z,5.13
2019-01-23T05:40:14.994Z,3.00
2019-01-23T05:42:41.891Z,2.90
2019-01-23T05:45:08.847Z,3.10
2019-01-23T05:47:35.818Z,4.47
2019-01-23T05:50:05.278Z,2.77
2019-01-23T05:52:32.068Z,2.87
2019-01-23T05:54:58.881Z,3.03
2019-01-23T05:57:25.716Z,4.30
2019-01-23T05:59:52.544Z,4.53
2019-01-23T06:02:19.364Z,14.63
2019-01-23T06:04:46.164Z,3.50
2019-01-23T06:07:12.974Z,8.53
2019-01-23T06:09:39.812Z,3.80
2019-01-23T06:12:06.635Z,4.90
2019-01-23T06:14:33.456Z,2.57
2019-01-23T06:17:00.222Z,3.33
2019-01-23T06:19:27.090Z,5.03
2019-01-23T06:21:53.872Z,4.47
2019-01-23T06:24:20.670Z,8.20
2019-01-23T06:26:47.510Z,2.33
2019-01-23T06:29:14.320Z,9.70
2019-01-23T06:31:41.145Z,8.60
2019-01-23T06:34:07.985Z,23.83
2019-01-23T06:36:34.994Z,8.73
2019-01-23T06:39:01.805Z,16.23
2019-01-23T06:41:28.739Z,6.50
2019-01-23T06:43:55.542Z,7.20
2019-01-23T06:46:22.374Z,3.40
2019-01-23T06:48:49.691Z,3.87
2019-01-23T06:51:16.524Z,7.63
2019-01-23T06:53:43.363Z,8.80
2019-01-23T06:56:10.231Z,5.43
2019-01-23T06:58:37.051Z,4.30
2019-01-23T07:01:04.070Z,10.50
2019-01-23T07:03:30.883Z,4.13
2019-01-23T07:05:57.818Z,9.83
2019-01-23T07:08:25.129Z,5.57
2019-01-23T07:10:53.446Z,9.47
2019-01-23T07:13:20.227Z,4.47
2019-01-23T07:15:47.022Z,6.60
2019-01-23T07:18:13.872Z,7.20
2019-01-23T07:20:40.670Z,5.00
2019-01-23T07:23:07.429Z,9.50
2019-01-23T07:25:34.285Z,16.43
2019-01-23T07:28:01.093Z,10.87
2019-01-23T07:30:29.135Z,11.97
2019-01-23T07:32:55.884Z,8.40
2019-01-23T07:35:22.743Z,12.00
2019-01-23T07:37:49.601Z,61.30
2019-01-23T07:40:16.370Z,10.53
2019-01-23T07:42:43.270Z,8.17
2019-01-23T07:45:10.773Z,5.60
2019-01-23T07:47:37.547Z,10.10
2019-01-23T07:50:04.835Z,11.80
2019-01-23T07:52:31.654Z,7.10
2019-01-23T07:54:58.501Z,15.93
2019-01-23T07:57:25.279Z,11.60
2019-01-23T07:59:52.180Z,8.73
2019-01-23T08:02:18.941Z,11.63
2019-01-23T08:04:45.812Z,6.43
2019-01-23T08:07:12.597Z,9.30
2019-01-23T08:09:39.426Z,7.97
2019-01-23T08:12:10.681Z,4.80
2019-01-23T08:14:34.888Z,36.57
2019-01-23T08:17:01.689Z,10.90
2019-01-23T08:19:28.563Z,6.57
2019-01-23T08:21:55.335Z,5.07
2019-01-23T08:24:22.159Z,6.67
2019-01-23T08:26:49.017Z,10.83
2019-01-23T08:29:15.810Z,7.57
2019-01-23T08:31:42.663Z,8.90
2019-01-23T08:34:09.410Z,9.10
2019-01-23T08:36:36.259Z,4.50
2019-01-23T08:39:04.977Z,9.03
2019-01-23T08:41:31.833Z,11.23
2019-01-23T08:43:58.649Z,5.40
2019-01-23T08:46:25.427Z,6.70
2019-01-23T08:48:52.291Z,6.50
2019-01-23T08:51:19.092Z,6.27
2019-01-23T08:53:45.978Z,6.93
2019-01-23T08:56:12.787Z,6.40
2019-01-23T08:58:39.623Z,9.43
2019-01-23T09:01:06.452Z,6.90
2019-01-23T09:03:33.364Z,28.27
2019-01-23T09:06:00.211Z,7.70
2019-01-23T09:08:27.020Z,12.50
2019-01-23T09:10:53.876Z,6.30
2019-01-23T09:13:20.707Z,4.60
2019-01-23T09:15:47.495Z,7.50
2019-01-23T09:18:14.339Z,5.70
2019-01-23T09:20:41.154Z,8.13
2019-01-23T09:23:07.968Z,4.17
2019-01-23T09:25:34.784Z,5.43
2019-01-23T09:28:01.635Z,6.10
2019-01-23T09:30:32.915Z,6.93
2019-01-23T09:33:18.287Z,6.20
2019-01-23T09:35:51.227Z,9.53
2019-01-23T09:38:52.629Z,5.70
2019-01-23T09:41:29.139Z,7.03
2019-01-23T09:44:06.111Z,4.57
2019-01-23T09:46:52.421Z,4.60
2019-01-23T09:49:31.275Z,8.47
2019-01-23T09:52:20.541Z,5.70
2019-01-23T09:54:47.454Z,5.83
2019-01-23T09:57:14.252Z,3.90
2019-01-23T09:59:41.059Z,6.20
2019-01-23T10:02:07.851Z,5.13
2019-01-23T10:04:34.651Z,4.00
2019-01-23T10:07:01.476Z,6.00
2019-01-23T10:09:28.258Z,4.43
2019-01-23T10:11:55.108Z,6.33
2019-01-23T10:14:21.890Z,5.83
2019-01-23T10:16:48.775Z,5.27
2019-01-23T10:19:15.539Z,6.13
2019-01-23T10:21:42.556Z,4.03
2019-01-23T10:24:09.384Z,6.40
2019-01-23T10:26:36.158Z,5.93
2019-01-23T10:29:03.041Z,9.77
2019-01-23T10:31:29.856Z,4.27
2019-01-23T10:33:56.635Z,3.93
2019-01-23T10:36:23.458Z,4.77
2019-01-23T10:38:50.280Z,6.67
2019-01-23T10:41:17.067Z,7.20
2019-01-23T10:43:43.891Z,4.77
2019-01-23T10:46:10.696Z,4.50
2019-01-23T10:48:38.025Z,4.93
2019-01-23T10:51:05.058Z,4.73
2019-01-23T10:53:31.941Z,5.50
2019-01-23T10:55:58.826Z,4.97
2019-01-23T10:58:25.616Z,7.03
2019-01-23T11:00:52.592Z,4.20
2019-01-23T11:03:19.363Z,5.83
2019-01-23T11:05:46.145Z,5.63
2019-01-23T11:08:13.040Z,5.40
2019-01-23T11:10:39.851Z,5.70
2019-01-23T11:13:06.630Z,4.40
2019-01-23T11:15:33.494Z,6.17
2019-01-23T11:18:00.282Z,6.37
2019-01-23T11:20:27.141Z,4.10
2019-01-23T11:22:53.964Z,3.97
2019-01-23T11:25:20.801Z,6.10
2019-01-23T11:27:47.570Z,3.77
2019-01-23T11:30:18.887Z,6.40
2019-01-23T11:32:45.672Z,5.67
2019-01-23T11:35:12.467Z,4.20
2019-01-23T11:37:39.295Z,5.53
2019-01-23T11:40:08.635Z,4.80
2019-01-23T11:42:35.479Z,5.60
2019-01-23T11:45:02.242Z,3.97
2019-01-23T11:47:29.103Z,7.07
2019-01-23T11:49:55.904Z,3.80
2019-01-23T11:52:22.727Z,9.00
2019-01-23T11:54:49.489Z,9.10
2019-01-23T11:57:16.325Z,9.33
2019-01-23T11:59:43.148Z,8.40
2019-01-23T12:02:09.890Z,10.93
2019-01-23T12:04:37.074Z,11.77
2019-01-23T12:07:07.899Z,13.17
2019-01-23T12:09:34.671Z,6.97
2019-01-23T12:12:01.548Z,11.60
2019-01-23T12:14:28.365Z,15.20
2019-01-23T12:16:55.122Z,13.30
2019-01-23T12:19:21.915Z,29.13
2019-01-23T12:21:48.718Z,15.33
2019-01-23T12:24:15.490Z,19.63
2019-01-23T12:26:43.233Z,13.07
2019-01-23T12:29:10.107Z,19.67
2019-01-23T12:31:36.906Z,16.67
2019-01-23T12:34:03.669Z,11.10
2019-01-23T12:36:30.461Z,19.60
2019-01-23T12:38:57.245Z,27.97
2019-01-23T12:41:24.088Z,17.97
2019-01-23T12:43:50.916Z,20.63
2019-01-23T12:46:17.691Z,14.13
2019-01-23T12:48:44.524Z,15.53
2019-01-23T12:51:11.317Z,12.80
2019-01-23T12:53:38.123Z,13.77
2019-01-23T12:56:04.907Z,20.40
2019-01-23T12:58:31.689Z,31.50
2019-01-23T13:00:58.474Z,11.83
2019-01-23T13:03:25.346Z,14.10
2019-01-23T13:05:52.122Z,19.70
2019-01-23T13:08:18.935Z,14.53
2019-01-23T13:10:45.994Z,15.83
2019-01-23T13:13:12.878Z,15.50
2019-01-23T13:15:39.664Z,17.90
2019-01-23T13:18:06.495Z,15.33
2019-01-23T13:20:33.314Z,16.60
2019-01-23T13:23:00.055Z,13.43
2019-01-23T13:25:27.579Z,14.97
2019-01-23T13:27:54.822Z,16.77
2019-01-23T13:30:22.586Z,15.17
2019-01-23T13:32:49.415Z,14.07
2019-01-23T13:35:17.414Z,24.43
2019-01-23T13:37:44.221Z,14.70
2019-01-23T13:40:18.247Z,13.70
2019-01-23T13:42:45.043Z,16.80
2019-01-23T13:45:11.857Z,11.27
2019-01-23T13:47:38.650Z,30.03
2019-01-23T13:50:05.778Z,14.60
2019-01-23T13:52:32.574Z,10.57
2019-01-23T13:54:59.413Z,9.70
2019-01-23T13:57:26.185Z,13.90
2019-01-23T13:59:53.007Z,10.90
2019-01-23T14:02:19.810Z,20.00
2019-01-23T14:04:46.613Z,12.57
2019-01-23T14:07:13.458Z,12.30
2019-01-23T14:09:40.230Z,14.10
2019-01-23T14:12:07.068Z,11.97
2019-01-23T14:14:33.874Z,11.03
2019-01-23T14:17:00.708Z,9.60
2019-01-23T14:19:27.530Z,11.50
2019-01-23T14:21:54.304Z,17.13
2019-01-23T14:24:21.079Z,9.80
2019-01-23T14:26:47.928Z,10.20
2019-01-23T14:29:14.759Z,14.77
2019-01-23T14:31:41.499Z,10.27
2019-01-23T14:34:08.261Z,10.13
2019-01-23T14:36:35.096Z,10.90
2019-01-23T14:39:01.890Z,11.67
2019-01-23T14:41:28.671Z,11.73
2019-01-23T14:43:55.583Z,12.90
2019-01-23T14:46:22.385Z,14.13
2019-01-23T14:48:49.198Z,11.90
2019-01-23T14:51:16.038Z,10.87
2019-01-23T14:53:42.874Z,13.20
2019-01-23T14:56:09.677Z,16.13
2019-01-23T14:58:36.493Z,7.83
2019-01-23T15:01:03.453Z,11.77
2019-01-23T15:03:30.276Z,16.23
2019-01-23T15:05:57.111Z,13.67
2019-01-23T15:08:23.918Z,12.83
2019-01-23T15:10:50.773Z,14.73
2019-01-23T15:13:17.545Z,19.63
2019-01-23T15:15:44.412Z,23.90
2019-01-23T15:18:11.198Z,18.57
2019-01-23T15:20:38.589Z,15.17
2019-01-23T15:23:05.403Z,26.27
2019-01-23T15:25:32.421Z,11.90
2019-01-23T15:27:59.165Z,15.70
2019-01-23T15:30:25.951Z,33.27
2019-01-23T15:32:52.800Z,19.93
2019-01-23T15:35:19.720Z,14.27
2019-01-23T15:37:46.520Z,13.93
2019-01-23T15:40:15.061Z,15.53
2019-01-23T15:42:41.939Z,11.87
2019-01-23T15:45:08.875Z,12.93
2019-01-23T15:47:35.716Z,19.07
2019-01-23T15:50:03.808Z,14.97
2019-01-23T15:52:30.732Z,18.00
2019-01-23T15:54:57.550Z,9.70
2019-01-23T15:57:24.358Z,14.47
2019-01-23T15:59:51.203Z,15.87
2019-01-23T16:02:24.093Z,17.40
2019-01-23T16:04:46.700Z,13.03
2019-01-23T16:07:13.511Z,11.10
2019-01-23T16:09:40.341Z,13.47
2019-01-23T16:12:07.282Z,10.67
2019-01-23T16:14:34.081Z,12.67
2019-01-23T16:17:00.871Z,14.40
2019-01-23T16:19:27.708Z,11.47
2019-01-23T16:21:54.474Z,15.00
2019-01-23T16:24:21.275Z,14.40
2019-01-23T16:26:48.661Z,23.47
2019-01-23T16:29:15.693Z,17.33
2019-01-23T16:31:42.557Z,16.00
2019-01-23T16:34:09.356Z,9.50
2019-01-23T16:36:36.194Z,11.60
2019-01-23T16:39:04.767Z,10.30
2019-01-23T16:41:32.116Z,13.30
2019-01-23T16:43:59.088Z,10.10
2019-01-23T16:46:25.991Z,15.40
2019-01-23T16:48:52.821Z,9.33
2019-01-23T16:51:19.615Z,13.13
2019-01-23T16:53:46.431Z,11.67
2019-01-23T16:56:13.356Z,14.47
2019-01-23T16:58:40.179Z,19.37
2019-01-23T17:01:07.012Z,12.00
2019-01-23T17:03:33.926Z,12.43
2019-01-23T17:06:00.750Z,13.03
2019-01-23T17:08:27.529Z,11.10
2019-01-23T17:10:54.475Z,8.87
2019-01-23T17:13:21.341Z,10.80
2019-01-23T17:15:48.166Z,10.43
2019-01-23T17:18:15.041Z,12.97
2019-01-23T17:20:43.006Z,9.37
2019-01-23T17:23:09.791Z,11.33
2019-01-23T17:25:36.600Z,9.07
2019-01-23T17:28:03.771Z,15.47
2019-01-23T17:30:30.636Z,10.63
2019-01-23T17:32:57.430Z,9.77
2019-01-23T17:35:24.278Z,11.30
2019-01-23T17:37:51.109Z,11.00
2019-01-23T17:40:18.394Z,10.27
2019-01-23T17:42:45.210Z,11.20
2019-01-23T17:45:13.214Z,9.70
2019-01-23T17:47:40.032Z,11.67
2019-01-23T17:50:08.196Z,11.83
2019-01-23T17:52:35.028Z,12.83
2019-01-23T17:55:01.801Z,12.20
2019-01-23T17:57:28.619Z,11.17
2019-01-23T17:59:55.440Z,10.10
2019-01-23T18:02:22.285Z,9.53
2019-01-23T18:04:49.099Z,11.93
2019-01-23T18:07:15.908Z,15.63
2019-01-23T18:09:42.778Z,8.90
2019-01-23T18:12:09.638Z,9.40
2019-01-23T18:14:36.415Z,15.30
2019-01-23T18:17:03.345Z,9.10
2019-01-23T18:19:30.143Z,11.80
2019-01-23T18:21:56.966Z,12.10
2019-01-23T18:24:24.079Z,9.87
2019-01-23T18:26:50.875Z,9.17
2019-01-23T18:29:17.675Z,9.27
2019-01-23T18:31:49.426Z,13.00
2019-01-23T18:34:38.828Z,10.50
2019-01-23T18:37:25.190Z,13.20
2019-01-23T18:40:02.327Z,10.83
2019-01-23T18:43:07.801Z,10.57
2019-01-23T18:45:41.171Z,8.90
2019-01-23T18:48:26.943Z,10.57
2019-01-23T18:51:19.035Z,11.63
2019-01-23T18:53:45.892Z,12.13
2019-01-23T18:56:12.714Z,9.17
2019-01-23T18:58:39.609Z,12.33
2019-01-23T19:01:06.418Z,7.60
2019-01-23T19:03:33.177Z,8.33
2019-01-23T19:06:00.011Z,10.67
2019-01-23T19:08:26.757Z,16.90
2019-01-23T19:10:56.160Z,40.90
2019-01-23T19:13:25.958Z,29.27
2019-01-23T19:15:58.752Z,22.50
2019-01-23T19:18:25.482Z,21.50
2019-01-23T19:20:52.302Z,19.20
2019-01-23T19:23:19.250Z,27.50
2019-01-23T19:25:46.071Z,16.53
2019-01-23T19:28:12.953Z,14.73
2019-01-23T19:30:39.822Z,22.73
2019-01-23T19:33:06.594Z,15.20
2019-01-23T19:35:33.596Z,13.93
2019-01-23T19:38:00.387Z,17.23
2019-01-23T19:40:27.150Z,32.30
2019-01-23T19:42:54.387Z,16.97
2019-01-23T19:45:21.552Z,17.03
2019-01-23T19:47:48.599Z,32.33
2019-01-23T19:50:15.426Z,20.80
2019-01-23T19:52:42.252Z,17.83
2019-01-23T19:55:09.792Z,16.87
2019-01-23T19:57:36.663Z,27.53
2019-01-23T20:00:04.270Z,19.60
2019-01-23T20:02:31.081Z,15.60
2019-01-23T20:04:57.908Z,32.57
2019-01-23T20:07:24.688Z,23.50
2019-01-23T20:09:51.458Z,24.50
2019-01-23T20:12:18.319Z,20.97
2019-01-23T20:14:45.093Z,50.90
2019-01-23T20:17:12.024Z,20.53
2019-01-23T20:19:38.819Z,19.10
2019-01-23T20:22:05.655Z,19.60
2019-01-23T20:24:32.453Z,16.87
2019-01-23T20:26:59.279Z,17.83
2019-01-23T20:29:26.116Z,19.83
2019-01-23T20:31:52.917Z,18.10
2019-01-23T20:34:19.755Z,24.77
2019-01-23T20:36:46.555Z,20.47
2019-01-23T20:39:13.381Z,16.43
2019-01-23T20:41:40.154Z,17.20
2019-01-23T20:44:06.996Z,16.83
2019-01-23T20:46:33.828Z,30.07
2019-01-23T20:49:00.698Z,19.27
2019-01-23T20:51:27.539Z,19.97
2019-01-23T20:53:54.359Z,15.77
2019-01-23T20:56:21.301Z,20.30
2019-01-23T20:58:48.152Z,18.47
2019-01-23T21:01:14.957Z,28.37
2019-01-23T21:03:41.762Z,20.30
2019-01-23T21:06:08.596Z,17.03
2019-01-23T21:08:35.419Z,17.27
2019-01-23T21:11:02.213Z,16.30
2019-01-23T21:13:29.074Z,17.57
2019-01-23T21:15:55.866Z,18.23
2019-01-23T21:18:22.725Z,13.53
2019-01-23T21:20:49.499Z,17.57
2019-01-23T21:23:16.355Z,21.47
2019-01-23T21:25:43.229Z,17.97
2019-01-23T21:28:10.058Z,12.90
2019-01-23T21:30:36.927Z,15.40
2019-01-23T21:33:03.715Z,16.50
2019-01-23T21:35:30.567Z,16.60
2019-01-23T21:37:57.378Z,14.63
2019-01-23T21:40:25.512Z,18.00
2019-01-23T21:42:52.347Z,11.90
2019-01-23T21:45:19.161Z,16.97
2019-01-23T21:47:46.450Z,22.10
2019-01-23T21:50:14.402Z,15.37
2019-01-23T21:52:41.253Z,16.00
2019-01-23T21:55:09.089Z,15.57
2019-01-23T21:57:35.931Z,13.30
2019-01-23T22:00:02.778Z,14.33
2019-01-23T22:02:29.569Z,15.27
2019-01-23T22:04:56.446Z,11.87
2019-01-23T22:07:23.203Z,18.03
2019-01-23T22:09:50.118Z,13.53
2019-01-23T22:12:16.971Z,16.77
2019-01-23T22:14:43.778Z,16.20
2019-01-23T22:17:10.653Z,13.90
2019-01-23T22:19:37.428Z,16.97
2019-01-23T22:22:04.238Z,21.57
2019-01-23T22:24:31.040Z,13.60
2019-01-23T22:27:00.198Z,21.30
2019-01-23T22:29:27.096Z,16.60
2019-01-23T22:31:53.952Z,33.57
2019-01-23T22:34:20.934Z,21.70
2019-01-23T22:36:47.774Z,18.10
2019-01-23T22:39:14.668Z,15.00
2019-01-23T22:41:42.083Z,15.80
2019-01-23T22:44:08.965Z,21.87
2019-01-23T22:46:35.775Z,19.50
2019-01-23T22:49:02.721Z,14.50
2019-01-23T22:51:29.629Z,16.90
2019-01-23T22:53:56.434Z,16.20
2019-01-23T22:56:23.255Z,14.53
2019-01-23T22:58:50.076Z,13.40
2019-01-23T23:01:22.066Z,18.90
2019-01-23T23:03:48.886Z,21.00
2019-01-23T23:06:15.678Z,14.40
2019-01-23T23:08:42.516Z,14.13
2019-01-23T23:11:09.375Z,12.00
2019-01-23T23:13:36.357Z,20.10
2019-01-23T23:16:03.181Z,14.13
2019-01-23T23:18:29.951Z,14.03
2019-01-23T23:20:56.819Z,15.07
2019-01-23T23:23:23.583Z,12.63
2019-01-23T23:25:50.426Z,21.60
2019-01-23T23:28:17.215Z,15.80
2019-01-23T23:30:44.150Z,15.37
2019-01-23T23:33:10.941Z,13.37
2019-01-23T23:35:37.721Z,12.07
2019-01-23T23:38:04.551Z,14.90
2019-01-23T23:40:31.358Z,14.00
2019-01-23T23:42:58.139Z,15.30
2019-01-23T23:45:24.962Z,14.97
2019-01-23T23:47:51.780Z,15.67
2019-01-23T23:50:18.592Z,18.33
2019-01-23T23:52:45.425Z,14.97
2019-01-23T23:55:12.415Z,14.70
2019-01-23T23:57:39.234Z,13.03
